createdAt,value
2022-07-28T00:01:16.492Z,3.50
2022-07-28T00:03:47.258Z,3.10
2022-07-28T00:06:23.300Z,3.70
2022-07-28T00:08:51.251Z,3.50
2022-07-28T00:11:19.162Z,3.60
2022-07-28T00:13:47.138Z,3.60
2022-07-28T00:16:15.130Z,3.30
2022-07-28T00:18:43.105Z,3.10
2022-07-28T00:21:11.421Z,4.20
2022-07-28T00:23:39.910Z,3.50
2022-07-28T00:26:09.727Z,3.00
2022-07-28T00:28:37.680Z,3.60
2022-07-28T00:31:08.485Z,4.00
2022-07-28T00:33:40.234Z,4.90
2022-07-28T00:36:11.544Z,5.60
2022-07-28T00:38:44.353Z,4.70
2022-07-28T00:41:13.273Z,4.30
2022-07-28T00:43:43.744Z,4.10
2022-07-28T00:46:13.456Z,4.80
2022-07-28T00:48:44.510Z,4.00
2022-07-28T00:51:12.874Z,5.10
2022-07-28T00:53:40.821Z,6.10
2022-07-28T00:56:09.401Z,6.90
2022-07-28T00:58:38.337Z,8.10
2022-07-28T01:01:10.819Z,8.60
2022-07-28T01:03:45.478Z,10.30
2022-07-28T01:06:31.774Z,11.00
2022-07-28T01:09:24.882Z,11.00
2022-07-28T01:12:05.148Z,12.10
2022-07-28T01:14:50.232Z,11.50
2022-07-28T01:17:36.311Z,11.00
2022-07-28T01:20:11.725Z,12.40
2022-07-28T01:22:56.773Z,11.20
2022-07-28T01:25:40.709Z,11.00
2022-07-28T01:28:41.670Z,9.60
2022-07-28T01:31:17.195Z,10.70
2022-07-28T01:33:49.297Z,7.80
2022-07-28T01:36:26.567Z,6.20
2022-07-28T01:38:55.230Z,5.70
2022-07-28T01:41:27.908Z,5.10
2022-07-28T01:44:00.531Z,5.90
2022-07-28T01:46:29.582Z,5.30
2022-07-28T01:48:59.796Z,5.60
2022-07-28T01:51:30.626Z,5.30
2022-07-28T01:54:00.391Z,5.60
2022-07-28T01:56:30.875Z,6.10
2022-07-28T01:59:05.567Z,5.20
2022-07-28T02:01:41.441Z,5.00
2022-07-28T02:04:11.332Z,5.00
2022-07-28T02:06:41.957Z,5.10
2022-07-28T02:09:11.122Z,4.50
2022-07-28T02:11:40.471Z,4.40
2022-07-28T02:14:14.334Z,4.80
2022-07-28T02:16:46.936Z,5.80
2022-07-28T02:19:17.649Z,5.80
2022-07-28T02:21:47.961Z,6.20
2022-07-28T02:24:19.466Z,6.40
2022-07-28T02:26:53.744Z,5.80
2022-07-28T02:29:49.314Z,6.00
2022-07-28T02:33:01.968Z,6.00
2022-07-28T02:35:50.763Z,5.50
2022-07-28T02:38:26.187Z,5.90
2022-07-28T02:40:57.666Z,5.10
2022-07-28T02:43:49.881Z,5.10
2022-07-28T02:46:20.606Z,6.00
2022-07-28T02:48:52.907Z,7.30
2022-07-28T02:51:24.871Z,5.50
2022-07-28T02:53:53.741Z,5.20
2022-07-28T02:56:22.347Z,5.10
2022-07-28T02:58:51.812Z,5.30
2022-07-28T03:01:21.187Z,5.50
2022-07-28T03:03:50.172Z,5.80
2022-07-28T03:06:19.994Z,6.40
2022-07-28T03:08:57.597Z,6.10
2022-07-28T03:11:25.565Z,6.00
2022-07-28T03:13:53.963Z,6.00
2022-07-28T03:16:21.911Z,6.90
2022-07-28T03:18:51.456Z,7.20
2022-07-28T03:21:19.429Z,6.30
2022-07-28T03:23:50.045Z,5.90
2022-07-28T03:26:25.736Z,6.10
2022-07-28T03:28:56.630Z,5.90
2022-07-28T03:31:27.562Z,6.00
2022-07-28T03:33:55.705Z,7.40
2022-07-28T03:36:31.300Z,7.00
2022-07-28T03:39:04.122Z,7.20
2022-07-28T03:41:34.261Z,6.60
2022-07-28T03:44:03.082Z,7.20
2022-07-28T03:46:31.743Z,33.40
2022-07-28T03:49:00.107Z,7.20
2022-07-28T03:51:29.694Z,6.80
2022-07-28T03:53:57.617Z,6.80
2022-07-28T03:56:25.501Z,6.70
2022-07-28T03:58:53.401Z,6.50
2022-07-28T04:01:21.420Z,5.50
2022-07-28T04:03:49.461Z,5.20
2022-07-28T04:06:17.464Z,5.00
2022-07-28T04:08:45.459Z,5.80
2022-07-28T04:11:13.475Z,5.00
2022-07-28T04:13:41.378Z,5.30
2022-07-28T04:16:09.303Z,5.10
2022-07-28T04:18:37.340Z,4.90
2022-07-28T04:21:07.485Z,5.10
2022-07-28T04:23:35.489Z,4.90
2022-07-28T04:26:03.456Z,5.90
2022-07-28T04:28:31.433Z,6.80
2022-07-28T04:30:59.490Z,7.40
2022-07-28T04:33:27.397Z,8.80
2022-07-28T04:35:55.337Z,10.20
2022-07-28T04:38:23.266Z,9.00
2022-07-28T04:40:51.262Z,7.80
2022-07-28T04:43:19.199Z,7.50
2022-07-28T04:45:53.818Z,5.80
2022-07-28T04:48:23.675Z,5.80
2022-07-28T04:50:53.380Z,5.10
2022-07-28T04:53:22.744Z,4.80
2022-07-28T04:55:53.446Z,5.30
2022-07-28T04:58:22.656Z,4.90
2022-07-28T05:00:51.507Z,5.00
2022-07-28T05:03:20.557Z,4.60
2022-07-28T05:05:54.071Z,4.20
2022-07-28T05:08:25.583Z,4.10
2022-07-28T05:10:57.124Z,4.10
2022-07-28T05:13:28.934Z,4.00
2022-07-28T05:15:59.800Z,4.60
2022-07-28T05:18:27.711Z,4.40
2022-07-28T05:21:03.642Z,5.30
2022-07-28T05:23:31.601Z,4.10
2022-07-28T05:25:59.537Z,3.70
2022-07-28T05:28:27.486Z,5.10
2022-07-28T05:30:55.525Z,6.50
2022-07-28T05:33:24.288Z,4.70
2022-07-28T05:35:59.199Z,6.10
2022-07-28T05:38:27.573Z,4.70
2022-07-28T05:40:55.495Z,4.10
2022-07-28T05:43:23.538Z,4.00
2022-07-28T05:45:52.018Z,3.80
2022-07-28T05:48:21.190Z,4.30
2022-07-28T05:50:50.714Z,3.80
2022-07-28T05:53:19.568Z,4.90
2022-07-28T05:55:57.809Z,5.10
2022-07-28T05:58:30.734Z,4.10
2022-07-28T06:01:02.812Z,3.60
2022-07-28T06:03:32.788Z,3.50
2022-07-28T06:06:15.771Z,3.80
2022-07-28T06:08:46.991Z,3.60
2022-07-28T06:11:21.575Z,3.60
2022-07-28T06:13:52.560Z,3.80
2022-07-28T06:16:22.824Z,3.60
2022-07-28T06:18:51.693Z,3.40
2022-07-28T06:21:22.340Z,3.40
2022-07-28T06:23:50.348Z,3.10
2022-07-28T06:26:18.282Z,3.80
2022-07-28T06:28:46.167Z,3.10
2022-07-28T06:31:14.580Z,3.30
2022-07-28T06:33:42.653Z,3.90
2022-07-28T06:36:10.520Z,3.40
2022-07-28T06:38:38.441Z,3.50
2022-07-28T06:41:06.383Z,3.40
2022-07-28T06:43:38.754Z,3.30
2022-07-28T06:46:07.711Z,3.50
2022-07-28T06:48:39.585Z,3.60
2022-07-28T06:51:07.810Z,3.30
2022-07-28T06:53:35.854Z,3.30
2022-07-28T06:56:06.534Z,3.70
2022-07-28T06:58:35.425Z,3.00
2022-07-28T07:01:07.766Z,2.90
2022-07-28T07:03:36.063Z,2.90
2022-07-28T07:06:04.455Z,3.20
2022-07-28T07:08:32.771Z,2.60
2022-07-28T07:11:00.941Z,2.80
2022-07-28T07:13:29.383Z,2.90
2022-07-28T07:15:57.385Z,2.60
2022-07-28T07:18:25.321Z,2.80
2022-07-28T07:20:54.760Z,2.40
2022-07-28T07:23:22.743Z,2.50
2022-07-28T07:25:50.657Z,2.30
2022-07-28T07:28:18.613Z,2.50
2022-07-28T07:30:46.569Z,2.70
2022-07-28T07:33:14.619Z,2.70
2022-07-28T07:35:42.599Z,2.30
2022-07-28T07:38:10.579Z,2.30
2022-07-28T07:40:38.541Z,2.50
2022-07-28T07:43:06.578Z,2.30
2022-07-28T07:45:34.535Z,2.50
2022-07-28T07:48:03.699Z,2.20
2022-07-28T07:50:32.126Z,2.60
2022-07-28T07:53:01.127Z,2.40
2022-07-28T07:55:34.340Z,2.50
2022-07-28T07:58:06.496Z,2.10
2022-07-28T08:00:34.671Z,2.50
2022-07-28T08:03:02.968Z,2.40
2022-07-28T08:05:35.887Z,2.40
2022-07-28T08:08:05.465Z,1.80
2022-07-28T08:10:36.256Z,2.10
2022-07-28T08:13:06.366Z,2.00
2022-07-28T08:15:35.396Z,2.00
2022-07-28T08:18:03.945Z,1.70
2022-07-28T08:20:32.798Z,2.20
2022-07-28T08:23:00.955Z,1.80
2022-07-28T08:25:29.072Z,2.10
2022-07-28T08:27:57.125Z,2.30
2022-07-28T08:30:28.771Z,2.10
2022-07-28T08:33:00.692Z,2.00
2022-07-28T08:35:36.290Z,2.90
2022-07-28T08:38:05.128Z,2.40
2022-07-28T08:40:34.824Z,1.90
2022-07-28T08:43:08.853Z,2.00
2022-07-28T08:48:09.036Z,2.00
2022-07-28T08:50:39.589Z,2.00
2022-07-28T08:53:08.797Z,2.00
2022-07-28T08:55:37.718Z,2.30
2022-07-28T08:58:06.400Z,3.00
2022-07-28T09:00:34.476Z,3.00
2022-07-28T09:03:04.296Z,2.30
2022-07-28T09:05:32.564Z,2.10
2022-07-28T09:08:01.129Z,2.30
2022-07-28T09:10:29.464Z,2.30
2022-07-28T09:12:57.344Z,2.50
2022-07-28T09:15:25.427Z,2.30
2022-07-28T09:17:53.583Z,2.00
2022-07-28T09:20:21.864Z,2.00
2022-07-28T09:23:01.431Z,2.10
2022-07-28T09:25:30.540Z,2.00
2022-07-28T09:28:13.307Z,2.20
2022-07-28T09:30:54.073Z,1.80
2022-07-28T09:33:42.930Z,2.10
2022-07-28T09:36:16.346Z,2.10
2022-07-28T09:38:47.047Z,2.10
2022-07-28T09:41:18.856Z,2.30
2022-07-28T09:43:52.387Z,2.20
2022-07-28T09:46:25.070Z,2.10
2022-07-28T09:48:57.874Z,2.40
2022-07-28T09:51:28.550Z,2.50
2022-07-28T09:54:17.990Z,2.60
2022-07-28T09:56:46.391Z,2.00
2022-07-28T09:59:15.173Z,1.90
2022-07-28T10:02:02.027Z,2.10
2022-07-28T10:04:33.496Z,2.20
2022-07-28T10:07:18.074Z,2.50
2022-07-28T10:10:00.801Z,3.60
2022-07-28T10:12:31.357Z,4.70
2022-07-28T10:15:31.999Z,3.00
2022-07-28T10:18:00.368Z,2.40
2022-07-28T10:20:29.787Z,2.40
2022-07-28T10:23:03.412Z,2.60
2022-07-28T10:25:33.818Z,2.10
2022-07-28T10:28:03.750Z,2.60
2022-07-28T10:30:38.072Z,2.00
2022-07-28T10:33:10.530Z,2.30
2022-07-28T10:35:49.613Z,2.40
2022-07-28T10:40:56.479Z,2.30
2022-07-28T10:43:27.578Z,2.40
2022-07-28T10:46:05.454Z,2.10
2022-07-28T10:48:37.796Z,2.20
2022-07-28T10:51:06.256Z,1.90
2022-07-28T10:53:45.509Z,2.20
2022-07-28T10:56:19.928Z,2.10
2022-07-28T10:59:04.883Z,2.30
2022-07-28T11:01:54.099Z,2.20
2022-07-28T11:04:46.266Z,2.10
2022-07-28T11:07:16.899Z,2.30
2022-07-28T11:09:47.605Z,2.40
2022-07-28T11:12:16.644Z,2.00
2022-07-28T11:14:45.113Z,2.00
2022-07-28T11:17:15.366Z,2.00
2022-07-28T11:22:35.024Z,2.00
2022-07-28T11:25:19.545Z,2.20
2022-07-28T11:27:50.699Z,2.00
2022-07-28T11:30:28.999Z,2.00
2022-07-28T11:32:58.341Z,2.10
2022-07-28T11:35:27.775Z,2.00
2022-07-28T11:38:02.004Z,2.10
2022-07-28T11:40:30.796Z,2.20
2022-07-28T11:43:22.321Z,2.20
2022-07-28T11:46:14.941Z,2.10
2022-07-28T11:48:45.284Z,2.40
2022-07-28T11:51:14.348Z,2.30
2022-07-28T11:53:55.715Z,2.60
2022-07-28T11:56:27.111Z,2.50
2022-07-28T11:59:00.618Z,2.70
2022-07-28T12:04:01.303Z,2.50
2022-07-28T12:06:37.198Z,2.20
2022-07-28T12:09:07.223Z,2.40
2022-07-28T12:11:36.535Z,2.00
2022-07-28T12:14:07.079Z,2.60
2022-07-28T12:16:37.415Z,2.70
2022-07-28T12:19:06.407Z,2.20
2022-07-28T12:21:46.280Z,2.70
2022-07-28T12:24:20.002Z,2.30
2022-07-28T12:26:50.450Z,3.40
2022-07-28T12:29:19.546Z,3.90
2022-07-28T12:32:00.831Z,3.90
2022-07-28T12:34:30.519Z,2.60
2022-07-28T12:37:02.417Z,2.30
2022-07-28T12:39:34.384Z,2.30
2022-07-28T12:42:08.132Z,2.20
2022-07-28T12:47:08.377Z,2.40
2022-07-28T12:49:37.831Z,2.50
2022-07-28T12:52:24.455Z,2.00
2022-07-28T12:54:55.634Z,5.50
2022-07-28T12:57:51.587Z,2.60
2022-07-28T13:00:24.803Z,2.60
2022-07-28T13:02:56.059Z,2.50
2022-07-28T13:05:32.314Z,2.20
2022-07-28T13:08:05.945Z,2.20
2022-07-28T13:10:34.130Z,2.70
2022-07-28T13:13:06.911Z,2.10
2022-07-28T13:15:35.093Z,2.80
2022-07-28T13:18:05.125Z,2.00
2022-07-28T13:20:47.623Z,2.70
2022-07-28T13:23:15.887Z,2.10
2022-07-28T13:25:44.147Z,2.50
2022-07-28T13:28:26.561Z,2.30
2022-07-28T13:30:55.132Z,2.50
2022-07-28T13:33:23.251Z,2.50
2022-07-28T13:35:51.377Z,2.50
2022-07-28T13:38:19.475Z,2.10
2022-07-28T13:40:47.331Z,2.60
2022-07-28T13:43:15.477Z,2.40
2022-07-28T13:45:43.569Z,2.00
2022-07-28T13:48:11.598Z,2.70
2022-07-28T13:50:39.565Z,2.50
2022-07-28T13:53:25.839Z,2.30
2022-07-28T13:55:53.739Z,2.70
2022-07-28T13:58:21.724Z,2.70
2022-07-28T14:00:50.990Z,2.60
2022-07-28T14:03:19.038Z,2.50
2022-07-28T14:05:46.997Z,2.00
2022-07-28T14:08:19.455Z,2.40
2022-07-28T14:10:53.196Z,2.50
2022-07-28T14:13:21.276Z,2.30
2022-07-28T14:15:49.537Z,2.20
2022-07-28T14:18:17.469Z,2.40
2022-07-28T14:20:45.509Z,2.30
2022-07-28T14:23:13.609Z,2.30
2022-07-28T14:25:49.073Z,2.10
2022-07-28T14:28:17.346Z,2.40
2022-07-28T14:30:45.361Z,2.60
2022-07-28T14:33:13.307Z,2.30
2022-07-28T14:35:41.258Z,2.70
2022-07-28T14:38:51.005Z,2.60
2022-07-28T14:41:01.539Z,2.10
2022-07-28T14:43:29.518Z,2.30
2022-07-28T14:46:13.584Z,2.00
2022-07-28T14:48:45.782Z,2.10
2022-07-28T14:51:13.999Z,2.30
2022-07-28T14:53:45.309Z,2.10
2022-07-28T14:56:19.556Z,2.20
2022-07-28T14:58:47.607Z,2.10
2022-07-28T15:01:15.603Z,1.90
2022-07-28T15:03:43.743Z,2.10
2022-07-28T15:06:11.850Z,4.60
2022-07-28T15:08:39.833Z,2.30
2022-07-28T15:11:07.879Z,2.30
2022-07-28T15:13:36.042Z,2.00
2022-07-28T15:16:04.304Z,2.40
2022-07-28T15:18:32.472Z,2.30
2022-07-28T15:21:00.536Z,2.10
2022-07-28T15:23:28.613Z,2.30
2022-07-28T15:25:56.539Z,2.10
2022-07-28T15:28:24.631Z,4.10
2022-07-28T15:30:53.042Z,1.90
2022-07-28T15:33:21.475Z,2.20
2022-07-28T15:35:59.363Z,2.50
2022-07-28T15:38:29.122Z,2.80
2022-07-28T15:41:00.234Z,3.20
2022-07-28T15:43:29.122Z,2.50
2022-07-28T15:45:57.581Z,3.40
2022-07-28T15:48:25.640Z,3.10
2022-07-28T15:50:53.930Z,2.20
2022-07-28T15:53:22.715Z,2.40
2022-07-28T15:55:51.766Z,2.40
2022-07-28T15:58:26.339Z,2.00
2022-07-28T16:01:24.548Z,2.30
2022-07-28T16:03:56.740Z,1.80
2022-07-28T16:07:13.769Z,2.40
2022-07-28T16:09:46.338Z,2.90
2022-07-28T16:12:15.341Z,2.30
2022-07-28T16:14:43.519Z,2.20
2022-07-28T16:17:11.805Z,2.30
2022-07-28T16:19:48.976Z,2.30
2022-07-28T16:22:19.334Z,2.40
2022-07-28T16:24:48.223Z,3.10
2022-07-28T16:27:16.289Z,2.40
2022-07-28T16:29:44.916Z,4.90
2022-07-28T16:32:13.046Z,4.40
2022-07-28T16:34:41.034Z,2.30
2022-07-28T16:37:09.274Z,2.70
2022-07-28T16:39:38.381Z,2.10
2022-07-28T16:42:06.531Z,2.20
2022-07-28T16:44:37.806Z,2.50
2022-07-28T16:47:05.901Z,2.30
2022-07-28T16:49:34.258Z,2.40
2022-07-28T16:52:02.249Z,2.50
2022-07-28T16:54:30.293Z,2.20
2022-07-28T16:56:58.311Z,2.40
2022-07-28T17:00:17.541Z,2.10
2022-07-28T17:02:45.621Z,2.00
2022-07-28T17:05:13.943Z,2.20
2022-07-28T17:07:45.176Z,2.40
2022-07-28T17:10:15.362Z,2.40
2022-07-28T17:12:50.135Z,2.30
2022-07-28T17:15:22.210Z,2.50
2022-07-28T17:17:52.366Z,2.50
2022-07-28T17:20:21.152Z,2.20
2022-07-28T17:22:49.225Z,2.30
2022-07-28T17:28:06.535Z,2.50
2022-07-28T17:30:34.773Z,2.50
2022-07-28T17:33:08.603Z,2.40
2022-07-28T17:35:38.675Z,2.60
2022-07-28T17:38:09.623Z,2.30
2022-07-28T17:40:40.164Z,2.90
2022-07-28T17:43:11.885Z,2.50
2022-07-28T17:45:40.337Z,2.60
2022-07-28T17:48:08.450Z,2.60
2022-07-28T17:50:36.677Z,2.70
2022-07-28T17:53:05.319Z,2.90
2022-07-28T17:55:54.008Z,2.60
2022-07-28T17:58:53.963Z,2.60
2022-07-28T18:01:22.066Z,3.70
2022-07-28T18:03:58.024Z,3.60
2022-07-28T18:06:30.479Z,2.90
2022-07-28T18:09:08.107Z,3.20
2022-07-28T18:11:55.984Z,3.20
2022-07-28T18:14:27.735Z,3.60
2022-07-28T18:16:56.420Z,4.20
2022-07-28T18:19:25.006Z,3.60
2022-07-28T18:21:53.006Z,3.50
2022-07-28T18:24:22.585Z,4.10
2022-07-28T18:26:53.894Z,3.90
2022-07-28T18:29:22.413Z,5.50
2022-07-28T18:31:53.753Z,4.70
2022-07-28T18:34:23.552Z,4.00
2022-07-28T18:36:54.478Z,4.10
2022-07-28T18:39:22.812Z,4.50
2022-07-28T18:41:55.455Z,4.80
2022-07-28T18:44:23.557Z,4.30
2022-07-28T18:46:51.780Z,5.20
2022-07-28T18:49:21.684Z,5.30
2022-07-28T18:51:49.722Z,6.00
2022-07-28T18:54:27.692Z,6.10
2022-07-28T18:56:56.820Z,6.30
2022-07-28T18:59:24.980Z,7.80
2022-07-28T19:01:52.970Z,7.70
2022-07-28T19:04:21.017Z,8.80
2022-07-28T19:06:49.882Z,9.70
2022-07-28T19:09:18.257Z,8.10
2022-07-28T19:11:46.776Z,8.10
2022-07-28T19:14:16.175Z,8.40
2022-07-28T19:16:44.607Z,7.90
2022-07-28T19:19:13.544Z,7.90
2022-07-28T19:21:43.326Z,9.00
2022-07-28T19:24:13.862Z,7.30
2022-07-28T19:26:44.563Z,6.90
2022-07-28T19:29:13.148Z,6.20
2022-07-28T19:31:41.664Z,6.30
2022-07-28T19:34:10.185Z,6.60
2022-07-28T19:36:40.409Z,7.30
2022-07-28T19:39:08.665Z,7.30
2022-07-28T19:41:36.595Z,7.60
2022-07-28T19:44:06.713Z,7.80
2022-07-28T19:46:34.846Z,8.30
2022-07-28T19:49:03.383Z,8.50
2022-07-28T19:51:31.596Z,7.60
2022-07-28T19:54:00.498Z,6.50
2022-07-28T19:56:31.443Z,6.00
2022-07-28T19:59:00.329Z,6.10
2022-07-28T20:01:28.558Z,6.00
2022-07-28T20:04:00.995Z,5.50
2022-07-28T20:06:33.349Z,6.00
2022-07-28T20:09:02.266Z,6.30
2022-07-28T20:11:33.028Z,5.80
2022-07-28T20:14:01.755Z,5.90
2022-07-28T20:16:29.963Z,6.30
2022-07-28T20:18:58.190Z,6.70
2022-07-28T20:21:26.549Z,6.50
2022-07-28T20:23:57.739Z,6.00
2022-07-28T20:26:26.823Z,6.60
2022-07-28T20:28:56.494Z,4.90
2022-07-28T20:31:24.759Z,5.20
2022-07-28T20:33:52.939Z,5.50
2022-07-28T20:36:21.715Z,5.30
2022-07-28T20:38:51.755Z,5.10
2022-07-28T20:41:19.791Z,5.00
2022-07-28T20:44:05.140Z,5.00
2022-07-28T20:46:35.664Z,5.20
2022-07-28T20:49:03.915Z,5.50
2022-07-28T20:51:31.966Z,7.10
2022-07-28T20:55:00.582Z,5.50
2022-07-28T20:58:49.542Z,5.60
2022-07-28T21:02:38.505Z,6.00
2022-07-28T21:06:27.474Z,6.00
2022-07-28T21:10:16.652Z,6.30
2022-07-28T21:14:05.508Z,6.70
2022-07-28T21:17:54.363Z,6.30
2022-07-28T21:20:42.625Z,6.50
2022-07-28T21:23:10.530Z,5.60
2022-07-28T21:25:38.478Z,6.20
2022-07-28T21:28:25.905Z,6.30
2022-07-28T21:30:53.785Z,5.90
2022-07-28T21:33:22.386Z,5.10
2022-07-28T21:35:51.129Z,5.60
2022-07-28T21:38:18.995Z,5.20
2022-07-28T21:40:46.897Z,5.20
2022-07-28T21:43:14.908Z,5.30
2022-07-28T21:45:42.867Z,5.00
2022-07-28T21:48:10.781Z,5.60
2022-07-28T21:50:38.808Z,5.20
2022-07-28T21:53:06.757Z,5.70
2022-07-28T21:55:34.995Z,3.30
2022-07-28T21:58:03.197Z,4.50
2022-07-28T22:00:31.283Z,4.20
2022-07-28T22:03:00.153Z,5.50
2022-07-28T22:05:28.622Z,5.20
2022-07-28T22:07:56.512Z,5.20
2022-07-28T22:10:24.907Z,5.10
2022-07-28T22:12:52.835Z,5.90
2022-07-28T22:15:20.794Z,5.10
2022-07-28T22:17:48.796Z,4.70
2022-07-28T22:20:16.818Z,5.20
2022-07-28T22:22:44.782Z,4.80
2022-07-28T22:25:12.737Z,4.50
2022-07-28T22:27:40.720Z,4.50
2022-07-28T22:30:09.045Z,4.20
2022-07-28T22:32:36.974Z,4.20
2022-07-28T22:35:05.320Z,4.20
2022-07-28T22:37:33.303Z,5.10
2022-07-28T22:40:01.141Z,4.60
2022-07-28T22:42:29.230Z,4.70
2022-07-28T22:44:57.218Z,5.10
2022-07-28T22:47:25.186Z,4.90
2022-07-28T22:49:55.860Z,5.20
2022-07-28T22:52:30.181Z,5.40
2022-07-28T22:55:13.397Z,4.40
2022-07-28T22:57:45.338Z,4.40
2022-07-28T23:00:14.203Z,4.20
2022-07-28T23:02:43.170Z,3.60
2022-07-28T23:05:12.021Z,3.50
2022-07-28T23:07:52.858Z,3.70
2022-07-28T23:10:25.570Z,3.70
2022-07-28T23:12:57.301Z,3.50
2022-07-28T23:15:39.711Z,3.70
2022-07-28T23:18:10.810Z,3.30
2022-07-28T23:20:40.153Z,3.50
2022-07-28T23:23:09.089Z,3.30
2022-07-28T23:25:39.728Z,3.30
2022-07-28T23:28:07.971Z,3.50
2022-07-28T23:30:36.405Z,3.40
2022-07-28T23:33:05.511Z,3.70
2022-07-28T23:35:35.798Z,4.00
2022-07-28T23:38:03.978Z,3.70
2022-07-28T23:40:32.112Z,3.60
2022-07-28T23:43:00.939Z,3.70
2022-07-28T23:45:29.073Z,4.00
2022-07-28T23:47:58.939Z,3.80
2022-07-28T23:50:27.565Z,4.00
2022-07-28T23:52:55.608Z,3.90
2022-07-28T23:55:25.581Z,3.40
2022-07-28T23:57:53.511Z,3.90
